sensor_id;sensor_type;location;lat;lon;timestamp;temperature;humidity
74968;SHT30;63523;51.880;12.630;2024-01-11T00:01:57;-8.52;81.71
74968;SHT30;63523;51.880;12.630;2024-01-11T00:04:22;-8.48;82.17
74968;SHT30;63523;51.880;12.630;2024-01-11T00:06:49;-8.39;82.71
74968;SHT30;63523;51.880;12.630;2024-01-11T00:09:15;-8.38;82.64
74968;SHT30;63523;51.880;12.630;2024-01-11T00:11:40;-8.39;82.13
74968;SHT30;63523;51.880;12.630;2024-01-11T00:14:05;-8.34;82.58
74968;SHT30;63523;51.880;12.630;2024-01-11T00:16:30;-8.34;82.20
74968;SHT30;63523;51.880;12.630;2024-01-11T00:18:56;-8.36;81.80
74968;SHT30;63523;51.880;12.630;2024-01-11T00:21:21;-8.34;82.28
74968;SHT30;63523;51.880;12.630;2024-01-11T00:23:46;-8.31;82.69
74968;SHT30;63523;51.880;12.630;2024-01-11T00:26:12;-8.32;82.36
74968;SHT30;63523;51.880;12.630;2024-01-11T00:28:38;-8.35;81.90
74968;SHT30;63523;51.880;12.630;2024-01-11T00:31:03;-8.42;81.40
74968;SHT30;63523;51.880;12.630;2024-01-11T00:33:28;-8.50;81.05
74968;SHT30;63523;51.880;12.630;2024-01-11T00:35:53;-8.56;81.57
74968;SHT30;63523;51.880;12.630;2024-01-11T00:38:19;-8.55;82.02
74968;SHT30;63523;51.880;12.630;2024-01-11T00:40:44;-8.52;81.88
74968;SHT30;63523;51.880;12.630;2024-01-11T00:43:09;-8.53;81.92
74968;SHT30;63523;51.880;12.630;2024-01-11T00:45:35;-8.56;81.75
74968;SHT30;63523;51.880;12.630;2024-01-11T00:48:00;-8.55;82.06
74968;SHT30;63523;51.880;12.630;2024-01-11T00:50:25;-8.57;81.94
74968;SHT30;63523;51.880;12.630;2024-01-11T00:52:51;-8.57;82.25
74968;SHT30;63523;51.880;12.630;2024-01-11T00:55:16;-8.53;82.43
74968;SHT30;63523;51.880;12.630;2024-01-11T00:57:41;-8.53;82.52
74968;SHT30;63523;51.880;12.630;2024-01-11T01:00:07;-8.52;82.70
74968;SHT30;63523;51.880;12.630;2024-01-11T01:02:32;-8.50;82.66
74968;SHT30;63523;51.880;12.630;2024-01-11T01:04:58;-8.50;82.54
74968;SHT30;63523;51.880;12.630;2024-01-11T01:07:24;-8.48;82.23
74968;SHT30;63523;51.880;12.630;2024-01-11T01:09:49;-8.52;82.08
74968;SHT30;63523;51.880;12.630;2024-01-11T01:12:15;-8.53;81.86
74968;SHT30;63523;51.880;12.630;2024-01-11T01:14:40;-8.56;81.85
74968;SHT30;63523;51.880;12.630;2024-01-11T01:17:05;-8.56;82.23
74968;SHT30;63523;51.880;12.630;2024-01-11T01:19:31;-8.57;82.11
74968;SHT30;63523;51.880;12.630;2024-01-11T01:21:56;-8.57;82.10
74968;SHT30;63523;51.880;12.630;2024-01-11T01:24:21;-8.62;82.24
74968;SHT30;63523;51.880;12.630;2024-01-11T01:26:46;-8.65;81.96
74968;SHT30;63523;51.880;12.630;2024-01-11T01:29:12;-8.67;82.15
74968;SHT30;63523;51.880;12.630;2024-01-11T01:31:37;-8.67;82.33
74968;SHT30;63523;51.880;12.630;2024-01-11T01:34:03;-8.66;82.56
74968;SHT30;63523;51.880;12.630;2024-01-11T01:36:29;-8.66;82.51
74968;SHT30;63523;51.880;12.630;2024-01-11T01:38:55;-8.65;82.65
74968;SHT30;63523;51.880;12.630;2024-01-11T01:41:20;-8.66;82.87
74968;SHT30;63523;51.880;12.630;2024-01-11T01:43:46;-8.70;82.18
74968;SHT30;63523;51.880;12.630;2024-01-11T01:46:11;-8.73;81.92
74968;SHT30;63523;51.880;12.630;2024-01-11T01:48:40;-8.74;82.05
74968;SHT30;63523;51.880;12.630;2024-01-11T01:51:06;-8.76;82.37
74968;SHT30;63523;51.880;12.630;2024-01-11T01:53:32;-8.74;82.72
74968;SHT30;63523;51.880;12.630;2024-01-11T01:55:57;-8.76;82.87
74968;SHT30;63523;51.880;12.630;2024-01-11T01:58:23;-8.73;82.85
74968;SHT30;63523;51.880;12.630;2024-01-11T02:00:49;-8.76;82.66
74968;SHT30;63523;51.880;12.630;2024-01-11T02:03:16;-8.74;82.93
74968;SHT30;63523;51.880;12.630;2024-01-11T02:05:41;-8.73;82.79
74968;SHT30;63523;51.880;12.630;2024-01-11T02:08:08;-8.72;82.70
74968;SHT30;63523;51.880;12.630;2024-01-11T02:10:35;-8.72;82.88
74968;SHT30;63523;51.880;12.630;2024-01-11T02:13:01;-8.70;82.66
74968;SHT30;63523;51.880;12.630;2024-01-11T02:15:26;-8.70;82.35
74968;SHT30;63523;51.880;12.630;2024-01-11T02:17:51;-8.72;81.97
74968;SHT30;63523;51.880;12.630;2024-01-11T02:20:17;-8.70;82.40
74968;SHT30;63523;51.880;12.630;2024-01-11T02:22:50;-8.66;82.82
74968;SHT30;63523;51.880;12.630;2024-01-11T02:25:18;-8.65;82.66
74968;SHT30;63523;51.880;12.630;2024-01-11T02:27:50;-8.62;82.57
74968;SHT30;63523;51.880;12.630;2024-01-11T02:30:15;-8.63;82.58
74968;SHT30;63523;51.880;12.630;2024-01-11T02:32:45;-8.60;82.73
74968;SHT30;63523;51.880;12.630;2024-01-11T02:35:13;-8.59;82.67
74968;SHT30;63523;51.880;12.630;2024-01-11T02:37:39;-8.63;82.66
74968;SHT30;63523;51.880;12.630;2024-01-11T02:40:07;-8.63;82.55
74968;SHT30;63523;51.880;12.630;2024-01-11T02:42:33;-8.62;82.94
74968;SHT30;63523;51.880;12.630;2024-01-11T02:44:59;-8.62;82.44
74968;SHT30;63523;51.880;12.630;2024-01-11T02:47:24;-8.67;82.28
74968;SHT30;63523;51.880;12.630;2024-01-11T02:49:49;-8.70;82.16
74968;SHT30;63523;51.880;12.630;2024-01-11T02:52:15;-8.74;81.76
74968;SHT30;63523;51.880;12.630;2024-01-11T02:54:40;-8.80;81.67
74968;SHT30;63523;51.880;12.630;2024-01-11T02:57:05;-8.84;81.88
74968;SHT30;63523;51.880;12.630;2024-01-11T02:59:31;-8.86;82.23
74968;SHT30;63523;51.880;12.630;2024-01-11T03:01:56;-8.86;82.29
74968;SHT30;63523;51.880;12.630;2024-01-11T03:04:21;-8.93;81.78
74968;SHT30;63523;51.880;12.630;2024-01-11T03:06:47;-8.94;81.74
74968;SHT30;63523;51.880;12.630;2024-01-11T03:09:12;-8.97;81.93
74968;SHT30;63523;51.880;12.630;2024-01-11T03:11:37;-8.96;81.97
74968;SHT30;63523;51.880;12.630;2024-01-11T03:14:03;-8.99;81.92
74968;SHT30;63523;51.880;12.630;2024-01-11T03:16:29;-9.00;81.88
74968;SHT30;63523;51.880;12.630;2024-01-11T03:18:54;-9.01;82.17
74968;SHT30;63523;51.880;12.630;2024-01-11T03:21:20;-9.04;81.85
74968;SHT30;63523;51.880;12.630;2024-01-11T03:23:45;-9.01;82.26
74968;SHT30;63523;51.880;12.630;2024-01-11T03:26:15;-8.87;82.96
74968;SHT30;63523;51.880;12.630;2024-01-11T03:28:41;-8.80;82.96
74968;SHT30;63523;51.880;12.630;2024-01-11T03:31:08;-8.77;83.40
74968;SHT30;63523;51.880;12.630;2024-01-11T03:33:33;-8.76;83.18
74968;SHT30;63523;51.880;12.630;2024-01-11T03:35:59;-8.72;82.92
74968;SHT30;63523;51.880;12.630;2024-01-11T03:38:24;-8.69;82.80
74968;SHT30;63523;51.880;12.630;2024-01-11T03:40:49;-8.69;82.54
74968;SHT30;63523;51.880;12.630;2024-01-11T03:43:17;-8.66;82.58
74968;SHT30;63523;51.880;12.630;2024-01-11T03:45:42;-8.66;82.52
74968;SHT30;63523;51.880;12.630;2024-01-11T03:48:07;-8.67;82.68
74968;SHT30;63523;51.880;12.630;2024-01-11T03:50:33;-8.70;82.29
74968;SHT30;63523;51.880;12.630;2024-01-11T03:52:58;-8.74;82.23
74968;SHT30;63523;51.880;12.630;2024-01-11T03:55:23;-8.76;82.02
74968;SHT30;63523;51.880;12.630;2024-01-11T03:57:49;-8.79;82.09
74968;SHT30;63523;51.880;12.630;2024-01-11T04:00:15;-8.80;82.08
74968;SHT30;63523;51.880;12.630;2024-01-11T04:02:40;-8.83;82.25
74968;SHT30;63523;51.880;12.630;2024-01-11T04:05:06;-8.83;82.31
74968;SHT30;63523;51.880;12.630;2024-01-11T04:07:31;-8.82;82.03
74968;SHT30;63523;51.880;12.630;2024-01-11T04:09:56;-8.84;81.78
74968;SHT30;63523;51.880;12.630;2024-01-11T04:12:22;-8.90;81.75
74968;SHT30;63523;51.880;12.630;2024-01-11T04:14:47;-8.94;81.85
74968;SHT30;63523;51.880;12.630;2024-01-11T04:17:12;-8.94;82.05
74968;SHT30;63523;51.880;12.630;2024-01-11T04:19:39;-8.94;82.51
74968;SHT30;63523;51.880;12.630;2024-01-11T04:22:04;-8.93;82.23
74968;SHT30;63523;51.880;12.630;2024-01-11T04:24:29;-8.93;82.05
74968;SHT30;63523;51.880;12.630;2024-01-11T04:26:55;-8.96;81.93
74968;SHT30;63523;51.880;12.630;2024-01-11T04:29:20;-8.94;81.98
74968;SHT30;63523;51.880;12.630;2024-01-11T04:31:45;-8.97;82.10
74968;SHT30;63523;51.880;12.630;2024-01-11T04:34:10;-8.96;82.15
74968;SHT30;63523;51.880;12.630;2024-01-11T04:36:39;-8.99;82.10
74968;SHT30;63523;51.880;12.630;2024-01-11T04:39:05;-8.99;82.30
74968;SHT30;63523;51.880;12.630;2024-01-11T04:41:31;-8.94;82.80
74968;SHT30;63523;51.880;12.630;2024-01-11T04:43:57;-8.91;82.92
74968;SHT30;63523;51.880;12.630;2024-01-11T04:46:22;-8.87;82.65
74968;SHT30;63523;51.880;12.630;2024-01-11T04:48:49;-8.83;82.74
74968;SHT30;63523;51.880;12.630;2024-01-11T04:51:15;-8.80;82.58
74968;SHT30;63523;51.880;12.630;2024-01-11T04:53:42;-8.76;82.53
74968;SHT30;63523;51.880;12.630;2024-01-11T04:56:08;-8.77;82.67
74968;SHT30;63523;51.880;12.630;2024-01-11T04:58:34;-8.74;82.33
74968;SHT30;63523;51.880;12.630;2024-01-11T05:01:00;-8.79;81.98
74968;SHT30;63523;51.880;12.630;2024-01-11T05:03:25;-8.79;82.03
74968;SHT30;63523;51.880;12.630;2024-01-11T05:05:51;-8.80;82.04
74968;SHT30;63523;51.880;12.630;2024-01-11T05:08:16;-8.80;82.31
74968;SHT30;63523;51.880;12.630;2024-01-11T05:10:41;-8.83;82.00
74968;SHT30;63523;51.880;12.630;2024-01-11T05:13:06;-8.82;81.77
74968;SHT30;63523;51.880;12.630;2024-01-11T05:15:32;-8.82;81.97
74968;SHT30;63523;51.880;12.630;2024-01-11T05:17:58;-8.84;81.82
74968;SHT30;63523;51.880;12.630;2024-01-11T05:20:23;-8.86;81.91
74968;SHT30;63523;51.880;12.630;2024-01-11T05:22:49;-8.90;81.91
74968;SHT30;63523;51.880;12.630;2024-01-11T05:25:14;-8.87;82.02
74968;SHT30;63523;51.880;12.630;2024-01-11T05:27:39;-8.82;81.83
74968;SHT30;63523;51.880;12.630;2024-01-11T05:30:05;-8.76;81.70
74968;SHT30;63523;51.880;12.630;2024-01-11T05:32:30;-8.76;81.79
74968;SHT30;63523;51.880;12.630;2024-01-11T05:34:55;-8.76;81.88
74968;SHT30;63523;51.880;12.630;2024-01-11T05:37:21;-8.72;81.93
74968;SHT30;63523;51.880;12.630;2024-01-11T05:39:46;-8.70;82.14
74968;SHT30;63523;51.880;12.630;2024-01-11T05:42:11;-8.72;81.85
74968;SHT30;63523;51.880;12.630;2024-01-11T05:44:39;-8.72;81.97
74968;SHT30;63523;51.880;12.630;2024-01-11T05:47:04;-8.70;81.87
74968;SHT30;63523;51.880;12.630;2024-01-11T05:49:30;-8.73;82.08
74968;SHT30;63523;51.880;12.630;2024-01-11T05:51:55;-8.67;82.13
74968;SHT30;63523;51.880;12.630;2024-01-11T05:54:20;-8.66;82.25
74968;SHT30;63523;51.880;12.630;2024-01-11T05:56:45;-8.63;81.95
74968;SHT30;63523;51.880;12.630;2024-01-11T05:59:11;-8.62;82.09
74968;SHT30;63523;51.880;12.630;2024-01-11T06:01:42;-8.57;82.56
74968;SHT30;63523;51.880;12.630;2024-01-11T06:04:08;-8.52;82.47
74968;SHT30;63523;51.880;12.630;2024-01-11T06:06:33;-8.48;82.27
74968;SHT30;63523;51.880;12.630;2024-01-11T06:08:58;-8.46;82.09
74968;SHT30;63523;51.880;12.630;2024-01-11T06:11:23;-8.48;81.99
74968;SHT30;63523;51.880;12.630;2024-01-11T06:13:49;-8.45;81.78
74968;SHT30;63523;51.880;12.630;2024-01-11T06:16:14;-8.48;81.82
74968;SHT30;63523;51.880;12.630;2024-01-11T06:18:39;-8.44;81.70
74968;SHT30;63523;51.880;12.630;2024-01-11T06:21:04;-8.46;81.19
74968;SHT30;63523;51.880;12.630;2024-01-11T06:23:30;-8.46;81.38
74968;SHT30;63523;51.880;12.630;2024-01-11T06:25:55;-8.44;81.74
74968;SHT30;63523;51.880;12.630;2024-01-11T06:28:21;-8.38;82.17
74968;SHT30;63523;51.880;12.630;2024-01-11T06:30:46;-8.25;82.04
74968;SHT30;63523;51.880;12.630;2024-01-11T06:33:12;-8.21;81.53
74968;SHT30;63523;51.880;12.630;2024-01-11T06:35:37;-8.21;81.64
74968;SHT30;63523;51.880;12.630;2024-01-11T06:38:02;-8.18;81.50
74968;SHT30;63523;51.880;12.630;2024-01-11T06:40:28;-8.18;81.51
74968;SHT30;63523;51.880;12.630;2024-01-11T06:43:02;-8.18;81.54
74968;SHT30;63523;51.880;12.630;2024-01-11T06:45:27;-8.22;81.49
74968;SHT30;63523;51.880;12.630;2024-01-11T06:47:53;-8.21;81.65
74968;SHT30;63523;51.880;12.630;2024-01-11T06:50:18;-8.21;81.98
74968;SHT30;63523;51.880;12.630;2024-01-11T06:52:43;-8.22;81.86
74968;SHT30;63523;51.880;12.630;2024-01-11T06:55:09;-8.21;81.97
74968;SHT30;63523;51.880;12.630;2024-01-11T06:57:35;-8.24;82.27
74968;SHT30;63523;51.880;12.630;2024-01-11T07:00:01;-8.24;81.83
74968;SHT30;63523;51.880;12.630;2024-01-11T07:02:26;-8.24;81.78
74968;SHT30;63523;51.880;12.630;2024-01-11T07:04:51;-8.25;81.78
74968;SHT30;63523;51.880;12.630;2024-01-11T07:07:16;-8.27;81.98
74968;SHT30;63523;51.880;12.630;2024-01-11T07:09:41;-8.31;82.01
74968;SHT30;63523;51.880;12.630;2024-01-11T07:12:07;-8.27;81.91
74968;SHT30;63523;51.880;12.630;2024-01-11T07:14:32;-8.25;81.99
74968;SHT30;63523;51.880;12.630;2024-01-11T07:16:58;-8.24;82.09
74968;SHT30;63523;51.880;12.630;2024-01-11T07:19:23;-8.18;82.41
74968;SHT30;63523;51.880;12.630;2024-01-11T07:25:10;-8.07;82.49
74968;SHT30;63523;51.880;12.630;2024-01-11T07:27:36;-7.94;82.52
74968;SHT30;63523;51.880;12.630;2024-01-11T07:30:01;-7.86;82.03
74968;SHT30;63523;51.880;12.630;2024-01-11T07:32:27;-7.87;81.87
74968;SHT30;63523;51.880;12.630;2024-01-11T07:34:53;-7.83;81.83
74968;SHT30;63523;51.880;12.630;2024-01-11T07:37:18;-7.83;81.77
74968;SHT30;63523;51.880;12.630;2024-01-11T07:39:43;-7.83;81.67
74968;SHT30;63523;51.880;12.630;2024-01-11T07:42:08;-7.83;81.77
74968;SHT30;63523;51.880;12.630;2024-01-11T07:44:34;-7.79;81.66
74968;SHT30;63523;51.880;12.630;2024-01-11T07:46:59;-7.78;81.39
74968;SHT30;63523;51.880;12.630;2024-01-11T07:49:24;-7.73;81.43
74968;SHT30;63523;51.880;12.630;2024-01-11T07:51:50;-7.68;81.25
74968;SHT30;63523;51.880;12.630;2024-01-11T07:54:15;-7.66;81.12
74968;SHT30;63523;51.880;12.630;2024-01-11T07:56:40;-7.62;81.02
74968;SHT30;63523;51.880;12.630;2024-01-11T07:59:05;-7.49;80.79
74968;SHT30;63523;51.880;12.630;2024-01-11T08:01:31;-7.51;80.45
74968;SHT30;63523;51.880;12.630;2024-01-11T08:03:56;-7.46;80.76
74968;SHT30;63523;51.880;12.630;2024-01-11T08:06:21;-7.39;81.04
74968;SHT30;63523;51.880;12.630;2024-01-11T08:08:47;-7.27;80.84
74968;SHT30;63523;51.880;12.630;2024-01-11T08:11:17;-7.21;81.26
74968;SHT30;63523;51.880;12.630;2024-01-11T08:13:42;-7.17;81.44
74968;SHT30;63523;51.880;12.630;2024-01-11T08:16:07;-7.10;81.67
74968;SHT30;63523;51.880;12.630;2024-01-11T08:18:34;-7.00;81.30
74968;SHT30;63523;51.880;12.630;2024-01-11T08:21:00;-6.93;81.42
74968;SHT30;63523;51.880;12.630;2024-01-11T08:23:25;-6.83;81.18
74968;SHT30;63523;51.880;12.630;2024-01-11T08:25:50;-6.79;81.28
74968;SHT30;63523;51.880;12.630;2024-01-11T08:28:17;-6.71;81.29
74968;SHT30;63523;51.880;12.630;2024-01-11T08:30:43;-6.52;81.14
74968;SHT30;63523;51.880;12.630;2024-01-11T08:33:08;-6.48;80.50
74968;SHT30;63523;51.880;12.630;2024-01-11T08:35:34;-6.44;80.64
74968;SHT30;63523;51.880;12.630;2024-01-11T08:37:59;-6.44;80.56
74968;SHT30;63523;51.880;12.630;2024-01-11T08:40:24;-6.37;80.79
74968;SHT30;63523;51.880;12.630;2024-01-11T08:42:50;-6.30;80.83
74968;SHT30;63523;51.880;12.630;2024-01-11T08:45:16;-6.18;80.91
74968;SHT30;63523;51.880;12.630;2024-01-11T08:47:45;-6.14;80.44
74968;SHT30;63523;51.880;12.630;2024-01-11T08:50:14;-6.10;80.21
74968;SHT30;63523;51.880;12.630;2024-01-11T08:52:41;-6.00;80.28
74968;SHT30;63523;51.880;12.630;2024-01-11T08:55:07;-5.92;79.65
74968;SHT30;63523;51.880;12.630;2024-01-11T08:57:32;-5.83;79.54
74968;SHT30;63523;51.880;12.630;2024-01-11T08:59:57;-5.81;79.50
74968;SHT30;63523;51.880;12.630;2024-01-11T09:02:23;-5.71;79.22
74968;SHT30;63523;51.880;12.630;2024-01-11T09:04:48;-5.69;78.87
74968;SHT30;63523;51.880;12.630;2024-01-11T09:07:14;-5.69;79.22
74968;SHT30;63523;51.880;12.630;2024-01-11T09:09:40;-5.67;78.97
74968;SHT30;63523;51.880;12.630;2024-01-11T09:12:06;-5.69;79.10
74968;SHT30;63523;51.880;12.630;2024-01-11T09:14:31;-5.67;78.97
74968;SHT30;63523;51.880;12.630;2024-01-11T09:16:57;-5.67;79.40
74968;SHT30;63523;51.880;12.630;2024-01-11T09:19:22;-5.64;79.60
74968;SHT30;63523;51.880;12.630;2024-01-11T09:21:47;-5.51;79.39
74968;SHT30;63523;51.880;12.630;2024-01-11T09:24:12;-5.41;79.13
74968;SHT30;63523;51.880;12.630;2024-01-11T09:26:38;-5.24;79.08
74968;SHT30;63523;51.880;12.630;2024-01-11T09:29:03;-5.07;78.73
74968;SHT30;63523;51.880;12.630;2024-01-11T09:31:29;-4.96;78.18
74968;SHT30;63523;51.880;12.630;2024-01-11T09:33:54;-4.88;77.51
74968;SHT30;63523;51.880;12.630;2024-01-11T09:36:22;-4.75;76.96
74968;SHT30;63523;51.880;12.630;2024-01-11T09:38:47;-4.74;77.07
74968;SHT30;63523;51.880;12.630;2024-01-11T09:41:13;-4.58;76.90
74968;SHT30;63523;51.880;12.630;2024-01-11T09:43:42;-4.36;76.26
74968;SHT30;63523;51.880;12.630;2024-01-11T09:46:09;-4.24;75.38
74968;SHT30;63523;51.880;12.630;2024-01-11T09:48:36;-4.13;75.53
74968;SHT30;63523;51.880;12.630;2024-01-11T09:51:03;-4.02;74.95
74968;SHT30;63523;51.880;12.630;2024-01-11T09:53:29;-3.89;74.59
74968;SHT30;63523;51.880;12.630;2024-01-11T09:55:56;-3.81;74.22
74968;SHT30;63523;51.880;12.630;2024-01-11T09:58:22;-3.63;73.56
74968;SHT30;63523;51.880;12.630;2024-01-11T10:00:49;-3.35;72.20
74968;SHT30;63523;51.880;12.630;2024-01-11T10:03:18;-3.16;72.05
74968;SHT30;63523;51.880;12.630;2024-01-11T10:05:44;-3.04;71.26
74968;SHT30;63523;51.880;12.630;2024-01-11T10:08:11;-3.06;71.35
74968;SHT30;63523;51.880;12.630;2024-01-11T10:10:36;-2.96;70.91
74968;SHT30;63523;51.880;12.630;2024-01-11T10:13:02;-2.85;71.40
74968;SHT30;63523;51.880;12.630;2024-01-11T10:15:27;-2.66;70.42
74968;SHT30;63523;51.880;12.630;2024-01-11T10:17:53;-2.45;69.65
74968;SHT30;63523;51.880;12.630;2024-01-11T10:20:18;-2.38;68.99
74968;SHT30;63523;51.880;12.630;2024-01-11T10:22:48;-2.43;67.83
74968;SHT30;63523;51.880;12.630;2024-01-11T10:25:15;-2.43;68.12
74968;SHT30;63523;51.880;12.630;2024-01-11T10:27:42;-2.29;68.65
74968;SHT30;63523;51.880;12.630;2024-01-11T10:30:09;-2.18;68.53
74968;SHT30;63523;51.880;12.630;2024-01-11T10:32:34;-2.22;67.29
74968;SHT30;63523;51.880;12.630;2024-01-11T10:35:00;-2.16;68.52
74968;SHT30;63523;51.880;12.630;2024-01-11T10:37:27;-2.21;68.39
74968;SHT30;63523;51.880;12.630;2024-01-11T10:39:55;-2.11;67.12
74968;SHT30;63523;51.880;12.630;2024-01-11T10:42:24;-2.14;67.04
74968;SHT30;63523;51.880;12.630;2024-01-11T10:44:54;-2.02;66.42
74968;SHT30;63523;51.880;12.630;2024-01-11T10:47:21;-1.98;66.26
74968;SHT30;63523;51.880;12.630;2024-01-11T10:49:50;-1.94;66.36
74968;SHT30;63523;51.880;12.630;2024-01-11T10:52:21;-1.88;65.99
74968;SHT30;63523;51.880;12.630;2024-01-11T10:54:48;-1.84;66.04
74968;SHT30;63523;51.880;12.630;2024-01-11T10:57:15;-1.81;66.17
74968;SHT30;63523;51.880;12.630;2024-01-11T10:59:41;-1.73;66.10
74968;SHT30;63523;51.880;12.630;2024-01-11T11:02:09;-1.56;67.01
74968;SHT30;63523;51.880;12.630;2024-01-11T11:04:38;-1.57;65.60
74968;SHT30;63523;51.880;12.630;2024-01-11T11:07:05;-1.66;65.06
74968;SHT30;63523;51.880;12.630;2024-01-11T11:09:34;-1.70;65.87
74968;SHT30;63523;51.880;12.630;2024-01-11T11:12:00;-1.68;66.20
74968;SHT30;63523;51.880;12.630;2024-01-11T11:14:27;-1.63;66.86
74968;SHT30;63523;51.880;12.630;2024-01-11T11:16:53;-1.66;67.88
74968;SHT30;63523;51.880;12.630;2024-01-11T11:19:22;-1.59;68.04
74968;SHT30;63523;51.880;12.630;2024-01-11T11:21:48;-1.42;67.34
74968;SHT30;63523;51.880;12.630;2024-01-11T11:24:14;-1.38;67.37
74968;SHT30;63523;51.880;12.630;2024-01-11T11:26:41;-1.18;67.26
74968;SHT30;63523;51.880;12.630;2024-01-11T11:29:08;-1.14;66.39
74968;SHT30;63523;51.880;12.630;2024-01-11T11:31:43;-1.09;66.67
74968;SHT30;63523;51.880;12.630;2024-01-11T11:34:12;-1.18;66.40
74968;SHT30;63523;51.880;12.630;2024-01-11T11:36:39;-1.11;66.75
74968;SHT30;63523;51.880;12.630;2024-01-11T11:39:05;-0.98;67.27
74968;SHT30;63523;51.880;12.630;2024-01-11T11:41:31;-1.00;66.43
74968;SHT30;63523;51.880;12.630;2024-01-11T11:44:04;-0.95;66.87
74968;SHT30;63523;51.880;12.630;2024-01-11T11:46:29;-1.03;67.06
74968;SHT30;63523;51.880;12.630;2024-01-11T11:48:56;-1.08;67.57
74968;SHT30;63523;51.880;12.630;2024-01-11T11:51:22;-1.24;68.17
74968;SHT30;63523;51.880;12.630;2024-01-11T11:53:49;-1.28;68.58
74968;SHT30;63523;51.880;12.630;2024-01-11T11:56:22;-1.32;68.80
74968;SHT30;63523;51.880;12.630;2024-01-11T11:58:49;-1.40;69.40
74968;SHT30;63523;51.880;12.630;2024-01-11T12:01:18;-1.53;69.90
74968;SHT30;63523;51.880;12.630;2024-01-11T12:03:45;-1.56;70.32
74968;SHT30;63523;51.880;12.630;2024-01-11T12:06:18;-1.67;70.52
74968;SHT30;63523;51.880;12.630;2024-01-11T12:08:44;-1.71;70.83
74968;SHT30;63523;51.880;12.630;2024-01-11T12:11:13;-1.80;71.02
74968;SHT30;63523;51.880;12.630;2024-01-11T12:13:39;-1.85;71.52
74968;SHT30;63523;51.880;12.630;2024-01-11T12:16:05;-1.93;71.75
74968;SHT30;63523;51.880;12.630;2024-01-11T12:18:30;-1.90;72.16
74968;SHT30;63523;51.880;12.630;2024-01-11T12:20:55;-1.93;72.07
74968;SHT30;63523;51.880;12.630;2024-01-11T12:23:21;-2.04;72.29
74968;SHT30;63523;51.880;12.630;2024-01-11T12:25:47;-2.02;72.57
74968;SHT30;63523;51.880;12.630;2024-01-11T12:28:12;-2.06;72.74
74968;SHT30;63523;51.880;12.630;2024-01-11T12:30:37;-2.21;72.82
74968;SHT30;63523;51.880;12.630;2024-01-11T12:33:03;-2.25;73.39
74968;SHT30;63523;51.880;12.630;2024-01-11T12:35:30;-2.35;73.52
74968;SHT30;63523;51.880;12.630;2024-01-11T12:37:59;-2.33;74.13
74968;SHT30;63523;51.880;12.630;2024-01-11T12:40:26;-2.33;73.79
74968;SHT30;63523;51.880;12.630;2024-01-11T12:42:56;-2.23;73.61
74968;SHT30;63523;51.880;12.630;2024-01-11T12:45:22;-2.09;73.28
74968;SHT30;63523;51.880;12.630;2024-01-11T12:47:47;-2.02;73.53
74968;SHT30;63523;51.880;12.630;2024-01-11T12:50:13;-1.90;73.16
74968;SHT30;63523;51.880;12.630;2024-01-11T12:52:39;-1.88;72.61
74968;SHT30;63523;51.880;12.630;2024-01-11T12:55:06;-1.83;72.86
74968;SHT30;63523;51.880;12.630;2024-01-11T12:57:33;-1.87;72.83
74968;SHT30;63523;51.880;12.630;2024-01-11T13:00:18;-1.78;73.19
74968;SHT30;63523;51.880;12.630;2024-01-11T13:02:44;-1.80;72.48
74968;SHT30;63523;51.880;12.630;2024-01-11T13:05:11;-1.87;73.17
74968;SHT30;63523;51.880;12.630;2024-01-11T13:07:37;-1.90;73.16
74968;SHT30;63523;51.880;12.630;2024-01-11T13:10:02;-1.91;73.50
74968;SHT30;63523;51.880;12.630;2024-01-11T13:12:29;-2.01;73.77
74968;SHT30;63523;51.880;12.630;2024-01-11T13:14:54;-2.05;74.22
74968;SHT30;63523;51.880;12.630;2024-01-11T13:17:21;-2.09;74.41
74968;SHT30;63523;51.880;12.630;2024-01-11T13:19:46;-1.99;74.44
74968;SHT30;63523;51.880;12.630;2024-01-11T13:22:11;-2.05;74.30
74968;SHT30;63523;51.880;12.630;2024-01-11T13:24:36;-2.15;74.79
74968;SHT30;63523;51.880;12.630;2024-01-11T13:27:02;-2.15;75.13
74968;SHT30;63523;51.880;12.630;2024-01-11T13:29:27;-2.15;75.06
74968;SHT30;63523;51.880;12.630;2024-01-11T13:31:52;-2.15;75.06
74968;SHT30;63523;51.880;12.630;2024-01-11T13:34:17;-2.26;75.59
74968;SHT30;63523;51.880;12.630;2024-01-11T13:36:44;-2.29;75.68
74968;SHT30;63523;51.880;12.630;2024-01-11T13:39:09;-2.43;76.20
74968;SHT30;63523;51.880;12.630;2024-01-11T13:41:34;-2.60;76.88
74968;SHT30;63523;51.880;12.630;2024-01-11T13:43:59;-2.64;77.52
74968;SHT30;63523;51.880;12.630;2024-01-11T13:46:25;-2.67;77.63
74968;SHT30;63523;51.880;12.630;2024-01-11T13:48:50;-2.74;77.90
74968;SHT30;63523;51.880;12.630;2024-01-11T13:51:15;-2.81;78.14
74968;SHT30;63523;51.880;12.630;2024-01-11T13:53:41;-2.87;78.34
74968;SHT30;63523;51.880;12.630;2024-01-11T13:56:06;-2.92;78.57
74968;SHT30;63523;51.880;12.630;2024-01-11T13:58:31;-2.91;78.89
74968;SHT30;63523;51.880;12.630;2024-01-11T14:00:57;-2.85;78.92
74968;SHT30;63523;51.880;12.630;2024-01-11T14:03:22;-2.91;79.00
74968;SHT30;63523;51.880;12.630;2024-01-11T14:05:47;-2.92;79.33
74968;SHT30;63523;51.880;12.630;2024-01-11T14:08:12;-2.84;79.54
74968;SHT30;63523;51.880;12.630;2024-01-11T14:10:38;-2.92;79.77
74968;SHT30;63523;51.880;12.630;2024-01-11T14:13:03;-2.98;79.59
74968;SHT30;63523;51.880;12.630;2024-01-11T14:15:28;-2.96;79.82
74968;SHT30;63523;51.880;12.630;2024-01-11T14:17:54;-3.01;80.02
74968;SHT30;63523;51.880;12.630;2024-01-11T14:20:19;-3.02;80.40
74968;SHT30;63523;51.880;12.630;2024-01-11T14:22:46;-2.95;80.38
74968;SHT30;63523;51.880;12.630;2024-01-11T14:25:18;-2.96;80.52
74968;SHT30;63523;51.880;12.630;2024-01-11T14:27:43;-2.85;80.21
74968;SHT30;63523;51.880;12.630;2024-01-11T14:30:10;-2.83;79.84
74968;SHT30;63523;51.880;12.630;2024-01-11T14:32:36;-2.80;79.58
74968;SHT30;63523;51.880;12.630;2024-01-11T14:35:01;-2.83;79.94
74968;SHT30;63523;51.880;12.630;2024-01-11T14:37:32;-2.85;80.36
74968;SHT30;63523;51.880;12.630;2024-01-11T14:39:58;-2.91;80.77
74968;SHT30;63523;51.880;12.630;2024-01-11T14:42:24;-2.91;81.22
74968;SHT30;63523;51.880;12.630;2024-01-11T14:44:49;-2.91;81.49
74968;SHT30;63523;51.880;12.630;2024-01-11T14:47:14;-2.87;81.60
74968;SHT30;63523;51.880;12.630;2024-01-11T14:49:40;-2.87;81.88
74968;SHT30;63523;51.880;12.630;2024-01-11T14:52:06;-2.94;81.94
74968;SHT30;63523;51.880;12.630;2024-01-11T14:54:31;-2.94;82.57
74968;SHT30;63523;51.880;12.630;2024-01-11T14:56:57;-2.94;82.72
74968;SHT30;63523;51.880;12.630;2024-01-11T14:59:22;-2.87;82.54
74968;SHT30;63523;51.880;12.630;2024-01-11T15:01:48;-2.88;82.56
74968;SHT30;63523;51.880;12.630;2024-01-11T15:04:13;-2.87;82.81
74968;SHT30;63523;51.880;12.630;2024-01-11T15:06:38;-2.89;82.83
74968;SHT30;63523;51.880;12.630;2024-01-11T15:09:03;-2.92;83.19
74968;SHT30;63523;51.880;12.630;2024-01-11T15:11:30;-2.94;83.44